Latest Weather Observations for Amberley

IDQ60901

Issued at 11:11 am EST Monday 18 October 2021 (issued every 10 minutes, with the page automatically refreshed every 10 minutes)

About weather observations | Map of Brisbane area stations | Latest observations for Brisbane area | Other Formats
Station Details ID: 040004 Name: AMBERLEY AMO Lat: -27.63 Lon: 152.71 Height: 24.2 m
Data from the previous 72 hours. | See also: Recent months at Amberley
Date/Time
EST
Temp
°C
App
Temp
°C
Dew
Point
°C
Rel
Hum
%
Delta-T
°C
Wind Press
QNH
hPa
Press
MSL
hPa
Rain since
9am
mm
Dir  Spd
km/h
Gust
km/h
Spd
kts
Gust
kts
18/11:00am 25.4 23.3 16.3 57 5.6 ENE 22 33 12 18 1015.1 1015.0 0.0
18/10:30am 25.6 25.0 16.7 58 5.5 NE 15 22 8 12 1016.1 1016.0 0.0
18/10:00am 23.8 23.8 16.3 63 4.6 ENE 11 15 6 8 1016.9 1016.8 0.0
18/09:30am 23.4 23.0 16.2 64 4.4 E 13 20 7 11 1017.3 1017.2 0.0
18/09:00am 23.4 23.8 16.4 64 4.3 E 9 15 5 8 1017.6 1017.5 0.0
18/08:30am 21.7 22.0 15.1 66 3.9 S 7 11 4 6 1017.8 1017.7 0.0
18/08:00am 19.7 19.3 14.1 70 3.2 S 9 11 5 6 1018.0 1017.9 0.0
18/07:30am 18.9 18.5 14.0 73 2.8 SSW 9 9 5 5 1018.1 1018.0 0.0
18/07:00am 17.8 17.6 13.7 77 2.3 ESE 7 9 4 5 1017.9 1017.8 0.0
18/06:30am 16.6 17.8 13.9 84 1.5 CALM 0 6 0 3 1017.6 1017.5 0.0
18/06:00am 15.4 16.6 13.8 90 0.9 CALM 0 0 0 0 1017.4 1017.3 0.0
18/05:30am 14.4 14.8 12.6 89 1.0 ESE 2 7 1 4 1017.3 1017.2 0.0
18/05:00am 14.6 15.4 12.5 87 1.1 CALM 0 0 0 0 1016.7 1016.6 0.0
18/04:30am 14.9 15.7 12.6 86 1.3 CALM 0 0 0 0 1016.7 1016.6 0.0
18/04:00am 15.2 16.0 12.7 85 1.4 CALM 0 0 0 0 1016.6 1016.5 0.0
18/03:30am 15.2 16.0 12.7 85 1.4 CALM 0 7 0 4 1016.2 1016.1 0.0
18/03:00am 15.4 16.4 13.1 86 1.3 CALM 0 0 0 0 1016.0 1015.9 0.0
18/02:30am 15.4 16.3 12.9 85 1.4 CALM 0 0 0 0 1016.0 1015.9 0.0
18/02:00am 15.3 15.5 13.0 86 1.3 ESE 4 6 2 3 1016.4 1016.3 0.0
18/01:30am 15.4 15.0 12.9 85 1.4 ESE 7 9 4 5 1016.4 1016.3 0.0
18/01:00am 15.6 15.2 12.9 84 1.5 ESE 7 9 4 5 1016.5 1016.4 0.0
18/12:30am 15.5 16.1 13.0 85 1.4 ESE 2 9 1 5 1016.8 1016.7 0.0
18/12:00am 15.0 14.6 12.9 87 1.2 ESE 7 9 4 5 1016.8 1016.7 0.0
 
Date/Time
EST
Temp
°C
App
Temp
°C
Dew
Point
°C
Rel
Hum
%
Delta-T
°C
Wind Press
QNH
hPa
Press
MSL
hPa
Rain since
9am
mm
Dir  Spd
km/h
Gust
km/h
Spd
kts
Gust
kts
17/11:30pm 14.8 14.2 12.3 85 1.4 ESE 7 9 4 5 1017.0 1016.9 0.0
17/11:00pm 16.3 15.7 12.3 77 2.2 ESE 7 9 4 5 1017.0 1016.9 0.0
17/10:30pm 16.0 14.7 12.4 79 2.0 ESE 11 13 6 7 1016.7 1016.6 0.0
17/10:00pm 16.8 15.8 12.3 75 2.5 ESE 9 11 5 6 1016.9 1016.8 0.0
17/09:30pm 17.0 15.2 12.1 73 2.7 ESE 13 15 7 8 1016.7 1016.6 0.0
17/09:00pm 17.5 15.8 12.4 72 2.8 SE 13 15 7 8 1016.4 1016.3 0.0
17/08:30pm 19.2 17.9 12.5 65 3.8 ESE 11 15 6 8 1016.1 1016.0 0.0
17/08:00pm 20.1 17.7 12.6 62 4.2 ENE 17 26 9 14 1015.3 1015.2 0.0
17/07:30pm 20.4 16.6 12.4 60 4.5 ENE 24 35 13 19 1014.7 1014.6 0.0
17/07:00pm 20.7 16.8 12.1 58 4.8 ENE 24 32 13 17 1014.3 1014.2 0.0
17/06:30pm 21.4 15.7 11.1 52 5.7 ENE 32 41 17 22 1013.6 1013.5 0.0
17/06:00pm 22.2 16.0 10.0 46 6.6 ENE 33 41 18 22 1012.9 1012.8 0.0
17/05:30pm 23.1 16.8 9.8 43 7.2 NE 33 46 18 25 1012.3 1012.2 0.0
17/05:07pm 25.2 20.7 8.7 35 8.9 NE 22 35 12 19 1011.5 1011.4 0.0
17/05:00pm 27.4 24.7 5.6 25 11.3 NNE 9 15 5 8 1011.3 1011.2 0.0
17/04:30pm 27.6 24.3 4.6 23 11.7 N 11 17 6 9 1011.0 1010.9 0.0
17/04:00pm 28.1 24.9 5.0 23 11.9 NE 11 15 6 8 1010.9 1010.8 0.0
17/03:30pm 28.3 24.5 5.8 24 11.8 NNW 15 24 8 13 1011.0 1010.9 0.0
17/03:00pm 28.4 25.6 5.3 23 12.0 NW 9 15 5 8 1011.1 1011.0 0.0
17/02:30pm 28.3 25.3 3.9 21 12.3 NW 9 19 5 10 1011.4 1011.3 0.0
17/02:00pm 27.3 24.5 5.0 24 11.4 N 9 19 5 10 1011.8 1011.7 0.0
17/01:30pm 27.3 25.1 6.1 26 11.1 SW 7 15 4 8 1012.1 1012.0 0.0
17/01:00pm 26.6 22.9 4.4 24 11.2 WNW 13 26 7 14 1012.6 1012.5 0.0
17/12:30pm 25.4 22.1 4.5 26 10.5 NE 11 15 6 8 1013.1 1013.0 0.0
17/12:00pm 26.3 23.4 6.4 28 10.4 NW 11 20 6 11 1013.7 1013.6 0.0
17/11:30am 25.5 22.3 5.1 27 10.3 NW 11 22 6 12 1014.2 1014.1 0.0
17/11:00am 24.8 20.8 5.1 28 9.9 WNW 15 24 8 13 1014.9 1014.8 0.0
17/10:30am 24.3 21.8 6.6 32 9.2 NNW 9 15 5 8 1015.3 1015.2 0.0
17/10:00am 23.7 20.8 6.5 33 8.8 W 11 17 6 9 1015.6 1015.5 0.0
17/09:30am 23.5 20.9 7.6 36 8.3 NNE 11 17 6 9 1015.9 1015.8 0.0
17/09:00am 21.9 19.2 7.3 39 7.5 NE 11 17 6 9 1016.0 1015.9 0.0
17/08:30am 21.1 19.0 8.4 44 6.7 NNW 9 17 5 9 1016.0 1015.9 0.0
17/08:00am 19.5 17.6 9.1 51 5.5 NW 9 15 5 8 1016.0 1015.9 0.0
17/07:30am 16.8 14.9 10.4 66 3.4 NW 11 13 6 7 1015.7 1015.6 0.0
17/07:00am 14.4 13.4 10.2 76 2.2 N 6 7 3 4 1015.4 1015.3 0.0
17/06:30am 11.8 11.5 10.0 89 0.9 NNW 2 6 1 3 1015.0 1014.9 0.0
17/06:00am 9.4 9.1 8.5 94 0.4 CALM 0 0 0 0 1014.5 1014.4 0.0
17/05:30am 8.7 6.4 7.6 93 0.5 SSW 9 11 5 6 1014.0 1013.9 0.0
17/05:00am 8.0 5.9 6.8 92 0.6 SSW 7 9 4 5 1013.6 1013.5 0.0
17/04:30am 8.4 6.3 6.7 89 0.8 SE 7 9 4 5 1013.2 1013.1 0.0
17/04:00am 9.5 8.2 7.6 88 0.9 SE 4 9 2 5 1012.9 1012.8 0.0
17/03:30am 9.6 7.7 7.5 87 1.0 SE 7 9 4 5 1012.4 1012.3 0.0
17/03:00am 9.7 8.4 7.5 86 1.0 ENE 4 7 2 4 1012.1 1012.0 0.0
17/02:30am 9.6 7.3 7.5 87 1.0 E 9 13 5 7 1011.9 1011.8 0.0
17/02:00am 10.9 10.0 7.6 80 1.6 SSW 2 7 1 4 1011.8 1011.7 0.0
17/01:30am 10.8 10.5 8.6 86 1.1 CALM 0 0 0 0 1012.1 1012.0 0.0
17/01:00am 9.6 6.3 8.0 90 0.8 SW 15 15 8 8 1012.1 1012.0 0.0
17/12:30am 11.5 9.0 8.2 80 1.6 SW 11 11 6 6 1012.3 1012.2 0.0
17/12:00am 11.0 9.3 8.4 84 1.3 SW 7 9 4 5 1012.5 1012.4 0.0
 
Date/Time
EST
Temp
°C
App
Temp
°C
Dew
Point
°C
Rel
Hum
%
Delta-T
°C
Wind Press
QNH
hPa
Press
MSL
hPa
Rain since
9am
mm
Dir  Spd
km/h
Gust
km/h
Spd
kts
Gust
kts
16/11:30pm 11.3 9.7 8.0 80 1.6 SW 6 7 3 4 1012.5 1012.4 0.0
16/11:00pm 12.8 10.7 8.1 73 2.3 SW 9 11 5 6 1012.4 1012.3 0.0
16/10:30pm 12.6 10.8 8.1 74 2.2 SW 7 7 4 4 1012.3 1012.2 0.0
16/10:00pm 14.4 13.6 8.1 66 3.1 E 2 7 1 4 1012.1 1012.0 0.0
16/09:30pm 13.1 11.1 8.6 74 2.3 WNW 9 11 5 6 1011.9 1011.8 0.0
16/09:00pm 13.7 11.6 8.3 70 2.7 WNW 9 11 5 6 1011.7 1011.6 0.0
16/08:30pm 16.6 14.6 7.3 54 4.6 S 7 9 4 5 1011.4 1011.3 0.0
16/08:00pm 17.6 15.7 7.4 51 5.1 S 7 9 4 5 1010.9 1010.8 0.0
16/07:30pm 20.2 16.9 6.2 40 7.0 WSW 13 17 7 9 1010.3 1010.2 0.0
16/07:00pm 21.1 17.7 5.9 37 7.6 W 13 15 7 8 1009.9 1009.8 0.0
16/06:30pm 21.5 18.0 5.4 35 8.0 WSW 13 19 7 10 1009.3 1009.2 0.0
16/06:00pm 23.2 19.2 4.7 30 9.2 W 15 19 8 10 1008.7 1008.6 0.0
16/05:30pm 24.9 19.8 4.1 26 10.3 W 20 30 11 16 1008.3 1008.2 0.0
16/05:00pm 25.8 19.6 4.3 25 10.8 W 26 35 14 19 1007.6 1007.5 0.0
16/04:30pm 26.3 20.0 3.5 23 11.3 W 26 39 14 21 1007.3 1007.2 0.0
16/04:00pm 26.7 20.8 3.9 23 11.4 W 24 33 13 18 1006.9 1006.8 0.0
16/03:30pm 26.9 20.6 4.0 23 11.5 WSW 26 35 14 19 1006.9 1006.8 0.0
16/03:00pm 26.9 20.9 3.4 22 11.7 W 24 39 13 21 1006.9 1006.8 0.0
16/02:30pm 27.2 19.6 3.0 21 12.0 W 32 50 17 27 1007.2 1007.1 0.0
16/02:00pm 27.2 19.7 3.7 22 11.8 WSW 32 46 17 25 1007.4 1007.3 0.0
16/01:30pm 27.0 19.8 2.8 21 11.9 W 30 43 16 23 1007.8 1007.7 0.0
16/01:00pm 26.8 19.2 4.0 23 11.5 W 33 50 18 27 1008.0 1007.9 0.0
16/12:51pm 26.5 18.8 2.4 21 11.7 W 32 50 17 27 1008.1 1008.0 0.0
16/12:30pm 26.3 19.3 4.1 24 11.1 W 30 44 16 24 1008.3 1008.2 0.0
16/12:00pm 25.9 19.9 5.5 27 10.5 WSW 26 48 14 26 1008.7 1008.6 0.0
16/11:51am 26.3 19.8 6.4 28 10.4 WSW 30 48 16 26 1008.7 1008.6 0.0
16/11:30am 25.8 19.9 5.9 28 10.3 WSW 26 37 14 20 1009.0 1008.9 0.0
16/11:00am 25.3 18.7 4.4 26 10.5 W 28 37 15 20 1009.3 1009.2 0.0
16/10:40am 24.8 17.1 3.5 25 10.4 W 33 57 18 31 1009.6 1009.5 0.0
16/10:30am 24.6 17.7 4.4 27 10.1 W 30 44 16 24 1009.7 1009.6 0.0
16/10:00am 24.5 17.6 6.3 31 9.4 W 32 44 17 24 1010.2 1010.1 0.0
16/09:30am 23.5 16.7 4.9 30 9.3 W 30 44 16 24 1010.5 1010.4 0.0
16/09:17am 24.0 17.7 5.8 31 9.3 WSW 28 46 15 25 1010.5 1010.4 0.0
16/09:00am 23.6 16.8 5.0 30 9.3 WSW 30 46 16 25 1010.6 1010.5 0.0
16/08:30am 22.7 15.7 4.2 30 9.1 W 30 44 16 24 1010.7 1010.6 0.0
16/08:29am 22.7 16.1 4.2 30 9.1 W 28 44 15 24 1010.7 1010.6 0.0
16/08:00am 21.3 17.6 6.4 38 7.5 NW 15 19 8 10 1010.6 1010.5 0.0
16/07:30am 19.8 16.2 8.5 48 5.9 NNW 17 22 9 12 1010.5 1010.4 0.0
16/07:00am 17.9 14.9 7.6 51 5.2 NNW 13 17 7 9 1010.1 1010.0 0.0
16/06:30am 16.7 14.0 7.4 54 4.7 NW 11 15 6 8 1009.5 1009.4 0.0
16/06:00am 15.0 11.4 6.8 58 4.0 NW 15 19 8 10 1009.2 1009.1 0.0
16/05:30am 12.8 8.4 6.6 66 3.0 NW 19 20 10 11 1008.8 1008.7 0.0
16/05:00am 11.2 7.1 6.1 71 2.4 NW 17 20 9 11 1008.4 1008.3 0.0
16/04:30am 11.0 7.2 6.0 71 2.3 NW 15 19 8 10 1008.1 1008.0 0.0
16/04:23am 11.1 8.1 6.0 71 2.4 NW 11 17 6 9 1008.2 1008.1 0.0
16/04:00am 11.6 9.7 6.5 71 2.4 NNW 6 7 3 4 1008.1 1008.0 0.0
16/03:54am 11.4 9.3 6.7 73 2.2 NNW 7 9 4 5 1008.1 1008.0 0.0
16/03:30am 11.2 9.2 6.1 71 2.4 NNW 6 7 3 4 1008.2 1008.1 0.0
16/03:00am 12.4 9.7 5.8 64 3.1 NNW 9 11 5 6 1008.1 1008.0 0.0
16/02:30am 12.7 8.9 5.8 63 3.2 WNW 15 17 8 9 1008.2 1008.1 0.0
16/02:00am 13.0 10.5 6.6 65 3.1 WNW 9 13 5 7 1008.4 1008.3 0.0
16/01:30am 12.5 10.4 6.8 68 2.7 NW 7 9 4 5 1008.5 1008.4 0.0
16/01:00am 12.7 10.6 6.7 67 2.9 NW 7 7 4 4 1008.7 1008.6 0.0
16/12:30am 12.3 9.9 7.2 71 2.5 NW 9 11 5 6 1008.5 1008.4 0.0
16/12:00am 14.4 13.6 6.3 58 3.9 CALM 0 0 0 0 1008.3 1008.2 0.0
 
Date/Time
EST
Temp
°C
App
Temp
°C
Dew
Point
°C
Rel
Hum
%
Delta-T
°C
Wind Press
QNH
hPa
Press
MSL
hPa
Rain since
9am
mm
Dir  Spd
km/h
Gust
km/h
Spd
kts
Gust
kts
15/11:30pm 15.9 14.8 4.9 48 5.2 CALM 0 0 0 0 1008.3 1008.2 0.0
15/11:00pm 17.0 15.9 5.3 46 5.6 CALM 0 6 0 3 1008.1 1008.0 0.0
15/10:30pm 19.7 15.4 3.0 33 7.8 W 15 19 8 10 1007.9 1007.8 0.0
15/10:00pm 20.5 15.3 2.3 30 8.5 W 19 22 10 12 1007.6 1007.5 0.0
15/09:30pm 21.3 16.4 2.1 28 8.9 W 17 20 9 11 1007.4 1007.3 0.0
15/09:00pm 22.6 17.9 1.0 24 10.0 W 15 19 8 10 1007.3 1007.2 0.0
15/08:30pm 21.4 16.9 2.2 28 9.0 W 15 20 8 11 1007.2 1007.1 0.0
15/08:00pm 21.5 17.3 1.7 27 9.2 WNW 13 15 7 8 1006.7 1006.6 0.0
15/07:30pm 22.2 17.9 1.3 25 9.6 W 13 15 7 8 1006.7 1006.6 0.0
15/07:00pm 22.7 17.7 1.1 24 10.0 W 17 20 9 11 1006.4 1006.3 0.0
15/06:30pm 23.7 18.2 0.7 22 10.6 W 19 26 10 14 1006.0 1005.9 0.0
15/06:00pm 25.2 19.0 0.0 19 11.7 W 22 32 12 17 1005.5 1005.4 0.0
15/05:30pm 26.0 19.3 -0.9 17 12.3 W 24 32 13 17 1005.1 1005.0 0.0
15/05:00pm 27.3 20.5 -1.6 15 13.2 WNW 24 37 13 20 1004.4 1004.3 0.0
15/04:44pm 27.8 20.5 -0.3 16 13.1 WNW 28 48 15 26 1004.2 1004.1 0.0
15/04:30pm 28.3 20.9 -0.8 15 13.5 W 28 39 15 21 1004.0 1003.9 0.0
15/04:00pm 28.7 21.3 -0.5 15 13.8 W 28 39 15 21 1003.8 1003.7 0.0
15/03:30pm 29.1 22.2 2.4 18 13.2 WNW 28 44 15 24 1003.6 1003.5 0.0
15/03:00pm 29.6 23.9 5.0 21 12.8 W 24 39 13 21 1003.7 1003.6 0.0
15/02:30pm 29.3 23.1 6.0 23 12.3 WNW 28 41 15 22 1003.9 1003.8 0.0
15/02:00pm 29.1 22.2 6.5 24 12.0 WNW 32 44 17 24 1004.4 1004.3 0.0
15/01:53pm 29.0 21.8 5.1 22 12.4 WNW 32 44 17 24 1004.4 1004.3 0.0
15/01:30pm 28.7 22.7 5.5 23 12.1 WNW 26 37 14 20 1004.7 1004.6 0.0
15/01:00pm 28.0 22.1 7.3 27 11.1 NW 28 41 15 22 1005.0 1004.9 0.0
15/12:30pm 27.6 20.4 5.8 25 11.3 NW 33 44 18 24 1005.5 1005.4 0.0
15/12:00pm 27.3 21.5 6.1 26 11.1 WNW 26 37 14 20 1006.2 1006.1 0.0
15/11:30am 27.2 22.3 8.6 31 10.1 WSW 24 35 13 19 1006.9 1006.8 0.0

Latest Capital City Observations: Canberra | Sydney | Melbourne | Brisbane | Adelaide | Perth | Hobart | Darwin

Other formats

Comma delimited format used in spreadsheet applications
http://www.bom.gov.au/fwo/IDQ60901/IDQ60901.94568.axf

JavaScript Object Notation format (JSON) in row-major order
http://www.bom.gov.au/fwo/IDQ60901/IDQ60901.94568.json

Data quality

Most of these data are generated automatically and are frequently updated. Quality checks on data are not normally performed. It is possible for incorrect values to appear. Refer to information at About Latest Weather Observations and please check the disclaimer before using these data.